createdAt,value
2022-10-26T00:01:54.176Z,19.48
2022-10-26T00:06:56.460Z,19.95
2022-10-26T00:11:58.677Z,21.60
2022-10-26T00:17:01.229Z,21.85
2022-10-26T00:22:03.573Z,22.05
2022-10-26T00:27:06.285Z,20.40
2022-10-26T00:32:08.683Z,21.48
2022-10-26T00:37:10.895Z,21.00
2022-10-26T00:42:20.397Z,20.67
2022-10-26T00:47:48.216Z,20.98
2022-10-26T00:52:55.331Z,20.88
2022-10-26T00:57:57.863Z,20.05
2022-10-26T01:03:05.337Z,20.95
2022-10-26T01:08:09.170Z,20.88
2022-10-26T01:13:13.025Z,20.75
2022-10-26T01:18:48.549Z,19.92
2022-10-26T01:24:09.993Z,19.38
2022-10-26T01:29:31.029Z,19.25
2022-10-26T01:34:43.315Z,17.20
2022-10-26T01:39:59.268Z,15.30
2022-10-26T01:45:08.484Z,16.65
2022-10-26T01:50:11.982Z,14.63
2022-10-26T01:55:32.917Z,12.43
2022-10-26T02:00:40.041Z,13.75
2022-10-26T02:06:03.741Z,12.70
2022-10-26T02:11:05.903Z,12.82
2022-10-26T02:16:23.028Z,12.15
2022-10-26T02:21:31.886Z,13.15
2022-10-26T02:26:35.075Z,12.27
2022-10-26T02:31:39.518Z,13.07
2022-10-26T02:36:45.707Z,13.70
2022-10-26T02:41:49.417Z,12.98
2022-10-26T02:46:53.604Z,14.52
2022-10-26T02:52:05.018Z,13.90
2022-10-26T02:57:15.785Z,13.70
2022-10-26T03:02:20.049Z,13.80
2022-10-26T03:07:23.975Z,14.88
2022-10-26T03:12:26.192Z,15.35
2022-10-26T03:17:28.447Z,17.05
2022-10-26T03:22:30.823Z,19.48
2022-10-26T03:27:33.125Z,18.83
2022-10-26T03:32:35.388Z,17.55
2022-10-26T03:37:37.627Z,20.05
2022-10-26T03:42:40.955Z,20.38
2022-10-26T03:47:45.424Z,20.20
2022-10-26T03:52:48.911Z,19.40
2022-10-26T03:57:51.333Z,20.25
2022-10-26T04:02:58.882Z,20.77
2022-10-26T04:08:05.285Z,18.85
2022-10-26T04:13:07.788Z,18.00
2022-10-26T04:18:13.346Z,19.30
2022-10-26T04:23:17.579Z,17.25
2022-10-26T04:28:20.151Z,18.95
2022-10-26T04:33:22.351Z,17.10
2022-10-26T04:38:24.669Z,17.13
2022-10-26T04:43:27.273Z,17.45
2022-10-26T04:48:29.767Z,18.52
2022-10-26T04:53:32.349Z,18.13
2022-10-26T04:58:34.581Z,19.30
2022-10-26T05:03:36.815Z,18.33
2022-10-26T05:08:39.011Z,19.48
2022-10-26T05:13:42.367Z,18.70
2022-10-26T05:18:44.820Z,22.17
2022-10-26T05:23:55.748Z,18.08
2022-10-26T05:28:57.995Z,17.52
2022-10-26T05:34:00.431Z,16.88
2022-10-26T05:39:02.891Z,18.55
2022-10-26T05:44:05.359Z,19.17
2022-10-26T05:49:07.556Z,18.95
2022-10-26T05:54:13.650Z,18.33
2022-10-26T05:59:17.314Z,20.60
2022-10-26T06:04:39.111Z,19.98
2022-10-26T06:09:42.370Z,18.90
2022-10-26T06:14:45.083Z,18.23
2022-10-26T06:19:59.526Z,19.58
2022-10-26T06:25:16.818Z,19.75
2022-10-26T06:30:20.877Z,21.67
2022-10-26T06:35:48.225Z,21.98
2022-10-26T06:40:53.837Z,22.05
2022-10-26T06:46:31.150Z,16.98
2022-10-26T06:51:42.190Z,18.70
2022-10-26T06:56:45.906Z,18.27
2022-10-26T07:01:48.315Z,17.73
2022-10-26T07:06:50.658Z,17.58
2022-10-26T07:11:52.905Z,18.48
2022-10-26T07:16:57.357Z,19.73
2022-10-26T07:22:00.753Z,17.02
2022-10-26T07:27:03.112Z,20.17
2022-10-26T07:32:05.625Z,17.40
2022-10-26T07:37:08.069Z,13.60
2022-10-26T07:42:10.595Z,13.70
2022-10-26T07:47:12.998Z,12.20
2022-10-26T07:52:15.222Z,12.68
2022-10-26T07:57:18.284Z,14.60
2022-10-26T08:02:21.435Z,14.50
2022-10-26T08:07:23.781Z,14.98
2022-10-26T08:12:25.991Z,15.32
2022-10-26T08:17:29.813Z,13.45
2022-10-26T08:22:32.237Z,11.55
2022-10-26T08:27:34.436Z,14.18
2022-10-26T08:32:36.611Z,12.48
2022-10-26T08:37:38.832Z,12.18
2022-10-26T08:42:47.051Z,11.80
2022-10-26T08:47:53.799Z,11.88
2022-10-26T08:53:29.867Z,11.90
2022-10-26T08:58:47.542Z,11.82
2022-10-26T09:03:50.271Z,11.60
2022-10-26T09:09:20.264Z,10.52
2022-10-26T09:14:33.381Z,10.35
2022-10-26T09:20:13.797Z,11.63
2022-10-26T09:25:21.306Z,10.70
2022-10-26T09:30:24.213Z,11.65
2022-10-26T09:35:35.136Z,11.45
2022-10-26T09:41:01.038Z,10.45
2022-10-26T09:46:03.357Z,9.77
2022-10-26T09:51:05.813Z,11.55
2022-10-26T09:56:13.472Z,10.80
2022-10-26T10:01:40.085Z,10.85
2022-10-26T10:06:46.326Z,12.90
2022-10-26T10:12:07.218Z,12.25
2022-10-26T10:17:22.111Z,10.52
2022-10-26T10:22:27.376Z,10.80
2022-10-26T10:27:31.362Z,10.95
2022-10-26T10:32:37.000Z,11.18
2022-10-26T10:37:47.375Z,11.23
2022-10-26T10:42:52.314Z,11.40
2022-10-26T10:48:02.906Z,12.48
2022-10-26T10:53:26.115Z,12.02
2022-10-26T10:58:37.888Z,10.80
2022-10-26T11:03:49.473Z,11.25
2022-10-26T11:09:08.606Z,11.85
2022-10-26T11:14:25.631Z,9.73
2022-10-26T11:19:36.553Z,9.82
2022-10-26T11:24:47.758Z,10.77
2022-10-26T11:30:04.397Z,10.30
2022-10-26T11:35:31.766Z,9.77
2022-10-26T11:41:12.715Z,9.93
2022-10-26T11:46:28.706Z,10.15
2022-10-26T11:51:31.026Z,10.50
2022-10-26T11:56:39.326Z,9.13
2022-10-26T12:01:44.688Z,8.27
2022-10-26T12:06:48.820Z,8.38
2022-10-26T12:11:59.198Z,7.45
2022-10-26T12:17:20.467Z,9.13
2022-10-26T12:22:28.323Z,8.13
2022-10-26T12:27:40.142Z,7.13
2022-10-26T12:32:43.858Z,7.65
2022-10-26T12:37:46.398Z,7.80
2022-10-26T12:42:48.594Z,6.38
2022-10-26T12:47:51.099Z,5.75
2022-10-26T12:52:57.394Z,5.68
2022-10-26T12:58:30.732Z,6.68
2022-10-26T13:03:45.121Z,7.05
2022-10-26T13:08:57.776Z,6.15
2022-10-26T13:14:09.695Z,6.13
2022-10-26T13:19:25.956Z,5.90
2022-10-26T13:24:32.237Z,6.30
2022-10-26T13:30:12.721Z,6.47
2022-10-26T13:35:16.462Z,6.50
2022-10-26T13:40:22.738Z,5.63
2022-10-26T13:45:34.975Z,5.75
2022-10-26T13:50:41.046Z,5.78
2022-10-26T13:55:55.872Z,5.28
2022-10-26T14:01:10.490Z,5.05
2022-10-26T14:06:39.929Z,5.00
2022-10-26T14:11:58.814Z,5.95
2022-10-26T14:17:02.015Z,4.45
2022-10-26T14:22:05.103Z,5.97
2022-10-26T14:27:28.707Z,5.50
2022-10-26T14:32:37.066Z,4.78
2022-10-26T14:42:59.198Z,4.93
2022-10-26T14:48:03.308Z,4.60
2022-10-26T14:53:17.579Z,5.13
2022-10-26T14:58:31.575Z,5.25
2022-10-26T15:03:33.807Z,5.13
2022-10-26T15:08:55.976Z,5.20
2022-10-26T15:13:59.753Z,5.07
2022-10-26T15:19:11.431Z,5.57
2022-10-26T15:24:33.188Z,4.85
2022-10-26T15:29:49.968Z,5.43
2022-10-26T15:35:16.576Z,5.57
2022-10-26T15:40:19.686Z,5.60
2022-10-26T15:45:28.093Z,5.78
2022-10-26T15:50:30.427Z,5.80
2022-10-26T15:55:32.821Z,6.85
2022-10-26T16:00:35.178Z,7.05
2022-10-26T16:05:37.590Z,6.93
2022-10-26T16:10:39.873Z,5.85
2022-10-26T16:15:42.674Z,8.43
2022-10-26T16:20:48.366Z,10.02
2022-10-26T16:25:50.563Z,9.60
2022-10-26T16:30:58.705Z,8.38
2022-10-26T16:36:01.544Z,9.67
2022-10-26T16:41:15.917Z,9.18
2022-10-26T16:46:22.139Z,8.10
2022-10-26T16:51:29.721Z,9.05
2022-10-26T16:56:32.003Z,9.35
2022-10-26T17:01:34.711Z,9.18
2022-10-26T17:06:36.992Z,8.77
2022-10-26T17:11:39.318Z,8.55
2022-10-26T17:16:41.539Z,8.13
2022-10-26T17:21:44.996Z,7.82
2022-10-26T17:26:47.369Z,7.00
2022-10-26T17:31:49.819Z,7.45
2022-10-26T17:36:52.640Z,7.75
2022-10-26T17:41:55.495Z,8.15
2022-10-26T17:46:58.070Z,7.43
2022-10-26T17:52:00.678Z,6.65
2022-10-26T17:57:03.480Z,7.75
2022-10-26T18:02:06.239Z,7.53
2022-10-26T18:07:09.103Z,7.60
2022-10-26T18:12:11.637Z,7.57
2022-10-26T18:17:14.337Z,8.43
2022-10-26T18:22:17.034Z,9.57
2022-10-26T18:27:20.761Z,10.07
2022-10-26T18:32:25.298Z,11.13
2022-10-26T18:37:28.443Z,13.32
2022-10-26T18:42:31.042Z,11.52
2022-10-26T18:47:34.156Z,9.90
2022-10-26T18:52:36.734Z,11.43
2022-10-26T18:57:39.428Z,11.77
2022-10-26T19:02:41.959Z,12.35
2022-10-26T19:07:44.551Z,11.60
2022-10-26T19:12:47.241Z,11.50
2022-10-26T19:17:50.282Z,10.70
2022-10-26T19:22:55.558Z,10.32
2022-10-26T19:27:58.032Z,10.98
2022-10-26T19:33:00.933Z,12.10
2022-10-26T19:38:03.236Z,13.07
2022-10-26T19:43:05.496Z,12.55
2022-10-26T19:48:08.031Z,11.15
2022-10-26T19:53:10.757Z,11.60
2022-10-26T19:58:14.179Z,13.10
2022-10-26T20:03:16.561Z,12.75
2022-10-26T20:08:20.253Z,15.75
2022-10-26T20:13:23.315Z,27.45
2022-10-26T20:18:26.319Z,25.45
2022-10-26T20:23:28.804Z,22.90
2022-10-26T20:28:31.586Z,21.17
2022-10-26T20:33:34.142Z,15.60
2022-10-26T20:38:37.343Z,12.07
2022-10-26T20:43:41.334Z,7.95
2022-10-26T20:48:44.051Z,9.30
2022-10-26T20:53:54.533Z,10.35
2022-10-26T20:58:59.004Z,12.23
2022-10-26T21:04:03.604Z,10.68
2022-10-26T21:09:06.564Z,11.63
2022-10-26T21:14:09.100Z,10.55
2022-10-26T21:19:11.560Z,13.05
2022-10-26T21:24:14.038Z,12.45
2022-10-26T21:29:16.573Z,15.00
2022-10-26T21:34:18.841Z,14.25
2022-10-26T21:39:21.218Z,13.88
2022-10-26T21:44:39.928Z,15.20
2022-10-26T21:49:43.038Z,14.23
2022-10-26T21:54:45.326Z,13.57
2022-10-26T21:59:47.757Z,12.35
2022-10-26T22:04:50.107Z,14.02
2022-10-26T22:10:07.856Z,12.98
2022-10-26T22:15:13.054Z,13.68
2022-10-26T22:20:15.294Z,14.48
2022-10-26T22:25:17.529Z,13.82
2022-10-26T22:30:19.937Z,13.05
2022-10-26T22:35:29.464Z,13.38
2022-10-26T22:40:32.376Z,13.82
2022-10-26T22:45:34.587Z,13.85
2022-10-26T22:50:38.801Z,15.35
2022-10-26T22:55:45.554Z,14.32
2022-10-26T23:00:48.137Z,13.38
2022-10-26T23:05:50.557Z,13.00
2022-10-26T23:10:52.986Z,12.77
2022-10-26T23:15:55.908Z,12.23
2022-10-26T23:20:58.285Z,11.52
2022-10-26T23:26:09.450Z,13.30
2022-10-26T23:31:23.544Z,11.48
2022-10-26T23:36:26.313Z,12.65
2022-10-26T23:41:29.367Z,13.88
2022-10-26T23:46:31.845Z,14.25
2022-10-26T23:51:34.188Z,14.32
2022-10-26T23:56:36.589Z,14.85
